createdAt,value
2017-11-12T00:00:02.944Z,6.20
2017-11-12T00:02:31.080Z,6.20
2017-11-12T00:04:59.182Z,6.20
2017-11-12T00:07:27.314Z,6.10
2017-11-12T00:09:55.401Z,6.10
2017-11-12T00:12:23.489Z,6.10
2017-11-12T00:14:51.568Z,6.10
2017-11-12T00:17:19.717Z,6.10
2017-11-12T00:19:47.806Z,6.10
2017-11-12T00:22:15.908Z,6.10
2017-11-12T00:24:44.771Z,6.00
2017-11-12T00:27:12.862Z,6.00
2017-11-12T00:29:41.723Z,6.00
2017-11-12T00:32:09.839Z,6.00
2017-11-12T00:34:37.936Z,5.90
2017-11-12T00:37:06.038Z,5.90
2017-11-12T00:40:06.158Z,5.90
2017-11-12T00:46:13.413Z,5.90
2017-11-12T00:49:21.413Z,5.90
2017-11-12T00:52:14.424Z,5.90
2017-11-12T00:54:59.919Z,5.90
2017-11-12T00:57:37.404Z,5.80
2017-11-12T01:00:05.702Z,5.80
2017-11-12T01:02:33.819Z,5.90
2017-11-12T01:05:01.948Z,5.90
2017-11-12T01:07:30.853Z,5.90
2017-11-12T01:09:58.970Z,5.90
2017-11-12T01:12:33.994Z,5.90
2017-11-12T01:15:02.127Z,5.90
2017-11-12T01:17:31.003Z,6.00
2017-11-12T01:19:59.130Z,5.90
2017-11-12T01:22:27.223Z,5.90
2017-11-12T01:24:55.312Z,6.00
2017-11-12T01:30:20.928Z,5.90
2017-11-12T01:32:49.006Z,5.90
2017-11-12T01:35:17.129Z,5.80
2017-11-12T01:37:45.977Z,5.70
2017-11-12T01:40:14.095Z,5.80
2017-11-12T01:42:42.956Z,5.70
2017-11-12T01:45:11.061Z,5.70
2017-11-12T01:47:39.948Z,5.70
2017-11-12T01:50:08.821Z,5.70
2017-11-12T01:52:36.913Z,5.70
2017-11-12T01:55:05.778Z,5.60
2017-11-12T01:57:48.972Z,5.60
2017-11-12T02:00:17.074Z,5.60
2017-11-12T02:02:45.157Z,5.60
2017-11-12T02:05:13.273Z,5.50
2017-11-12T02:07:41.365Z,5.60
2017-11-12T02:10:09.444Z,5.50
2017-11-12T02:12:37.539Z,5.40
2017-11-12T02:15:05.645Z,5.30
2017-11-12T02:17:34.513Z,5.10
2017-11-12T02:20:02.606Z,5.10
2017-11-12T02:22:31.498Z,5.20
2017-11-12T02:25:00.371Z,5.30
2017-11-12T02:27:29.720Z,5.30
2017-11-12T02:29:57.855Z,5.30
2017-11-12T02:32:26.714Z,5.20
2017-11-12T02:34:54.827Z,5.20
2017-11-12T02:37:22.943Z,5.20
2017-11-12T02:39:51.026Z,5.30
2017-11-12T02:42:19.121Z,5.30
2017-11-12T02:44:47.219Z,5.30
2017-11-12T02:47:16.074Z,5.20
2017-11-12T02:49:44.161Z,5.20
2017-11-12T02:52:12.241Z,5.00
2017-11-12T02:54:40.362Z,4.90
2017-11-12T02:57:08.449Z,4.80
2017-11-12T02:59:46.092Z,4.70
2017-11-12T03:02:14.959Z,4.70
2017-11-12T03:04:43.068Z,4.70
2017-11-12T03:07:11.939Z,4.70
2017-11-12T03:09:40.091Z,4.60
2017-11-12T03:12:08.201Z,4.60
2017-11-12T03:14:37.075Z,4.40
2017-11-12T03:17:06.185Z,4.40
2017-11-12T03:19:35.039Z,4.40
2017-11-12T03:22:03.136Z,4.40
2017-11-12T03:24:31.209Z,4.30
2017-11-12T03:27:00.091Z,4.10
2017-11-12T03:29:28.168Z,4.10
2017-11-12T03:31:56.255Z,4.10
2017-11-12T03:34:25.126Z,3.90
2017-11-12T03:36:53.213Z,3.90
2017-11-12T03:39:22.078Z,3.60
2017-11-12T03:41:50.168Z,3.60
2017-11-12T03:44:18.252Z,3.50
2017-11-12T03:46:47.135Z,3.50
2017-11-12T03:49:15.205Z,3.50
2017-11-12T03:51:44.062Z,3.60
2017-11-12T03:54:12.136Z,3.60
2017-11-12T03:56:40.216Z,3.60
2017-11-12T03:59:08.295Z,3.50
2017-11-12T04:01:36.380Z,3.60
2017-11-12T04:04:05.248Z,3.70
2017-11-12T04:06:33.339Z,3.70
2017-11-12T04:09:01.436Z,3.80
2017-11-12T04:11:30.287Z,4.00
2017-11-12T04:13:58.369Z,4.00
2017-11-12T04:16:26.454Z,3.80
2017-11-12T04:18:55.366Z,3.70
2017-11-12T04:21:24.210Z,3.60
2017-11-12T04:23:52.297Z,3.60
2017-11-12T04:26:20.396Z,3.60
2017-11-12T04:28:49.238Z,3.50
2017-11-12T04:31:17.333Z,3.40
2017-11-12T04:33:45.404Z,3.50
2017-11-12T04:36:13.493Z,3.50
2017-11-12T04:38:41.569Z,3.60
2017-11-12T04:41:10.455Z,3.60
2017-11-12T04:43:39.311Z,3.50
2017-11-12T04:46:07.396Z,3.50
2017-11-12T04:48:35.491Z,3.70
2017-11-12T04:51:03.609Z,3.70
2017-11-12T04:53:31.716Z,3.70
2017-11-12T04:55:59.820Z,3.70
2017-11-12T04:58:28.670Z,3.70
2017-11-12T05:00:56.763Z,3.70
2017-11-12T05:03:24.868Z,3.70
2017-11-12T05:05:53.709Z,3.80
2017-11-12T05:08:21.795Z,3.80
2017-11-12T05:10:49.886Z,3.70
2017-11-12T05:13:18.753Z,3.60
2017-11-12T05:15:46.813Z,3.50
2017-11-12T05:18:14.904Z,3.60
2017-11-12T05:20:42.974Z,3.70
2017-11-12T05:23:11.116Z,3.70
2017-11-12T05:25:39.206Z,3.70
2017-11-12T05:28:07.283Z,3.70
2017-11-12T05:30:35.362Z,3.70
2017-11-12T05:33:03.437Z,3.80
2017-11-12T05:35:31.507Z,3.90
2017-11-12T05:37:59.623Z,3.90
2017-11-12T05:40:27.700Z,3.90
2017-11-12T05:42:55.794Z,3.90
2017-11-12T05:45:24.813Z,3.90
2017-11-12T05:47:52.901Z,3.80
2017-11-12T05:50:20.966Z,3.80
2017-11-12T05:52:49.064Z,3.70
2017-11-12T05:55:17.897Z,3.70
2017-11-12T05:57:46.736Z,3.70
2017-11-12T06:00:15.567Z,3.80
2017-11-12T06:02:44.422Z,3.90
2017-11-12T06:05:13.260Z,3.80
2017-11-12T06:07:41.349Z,3.80
2017-11-12T06:10:09.441Z,3.90
2017-11-12T06:12:37.527Z,3.90
2017-11-12T06:15:06.378Z,3.70
2017-11-12T06:17:34.465Z,3.60
2017-11-12T06:20:02.543Z,3.60
2017-11-12T06:22:30.636Z,3.40
2017-11-12T06:24:59.493Z,3.50
2017-11-12T06:27:27.669Z,3.50
2017-11-12T06:29:55.745Z,3.60
2017-11-12T06:32:23.821Z,3.60
2017-11-12T06:34:51.897Z,3.40
2017-11-12T06:37:19.984Z,3.40
2017-11-12T06:39:48.833Z,3.40
2017-11-12T06:42:16.940Z,3.40
2017-11-12T06:44:45.051Z,3.40
2017-11-12T06:47:13.142Z,3.40
2017-11-12T06:49:41.984Z,3.40
2017-11-12T06:52:10.852Z,3.40
2017-11-12T06:54:38.935Z,3.40
2017-11-12T06:57:07.069Z,3.50
2017-11-12T06:59:35.149Z,3.50
2017-11-12T07:02:03.237Z,3.50
2017-11-12T07:04:31.329Z,3.70
2017-11-12T07:06:59.402Z,3.60
2017-11-12T07:09:27.522Z,3.60
2017-11-12T07:11:55.598Z,3.70
2017-11-12T07:14:23.687Z,3.60
2017-11-12T07:16:51.779Z,3.60
2017-11-12T07:19:19.864Z,3.70
2017-11-12T07:21:47.924Z,3.70
2017-11-12T07:24:16.020Z,3.80
2017-11-12T07:26:44.874Z,3.90
2017-11-12T07:29:12.969Z,3.90
2017-11-12T07:31:41.033Z,3.80
2017-11-12T07:34:09.122Z,3.80
2017-11-12T07:36:37.976Z,4.00
2017-11-12T07:39:06.060Z,3.90
2017-11-12T07:41:34.137Z,4.00
2017-11-12T07:44:02.221Z,4.10
2017-11-12T07:46:30.293Z,4.00
2017-11-12T07:48:58.371Z,4.10
2017-11-12T07:51:26.449Z,4.20
2017-11-12T07:53:55.307Z,4.30
2017-11-12T07:56:23.380Z,4.30
2017-11-12T07:58:51.473Z,4.30
2017-11-12T08:01:19.541Z,4.30
2017-11-12T08:03:47.616Z,4.40
2017-11-12T08:06:15.688Z,4.40
2017-11-12T08:08:43.767Z,4.40
2017-11-12T08:11:11.849Z,4.40
2017-11-12T08:13:40.709Z,4.40
2017-11-12T08:16:08.828Z,4.40
2017-11-12T08:18:36.925Z,4.40
2017-11-12T08:21:04.994Z,4.40
2017-11-12T08:23:33.080Z,4.50
2017-11-12T08:26:01.186Z,4.50
2017-11-12T08:28:29.259Z,4.50
2017-11-12T08:30:57.333Z,4.50
2017-11-12T08:33:25.404Z,4.50
2017-11-12T08:35:53.486Z,4.50
2017-11-12T08:38:22.337Z,4.50
2017-11-12T08:40:50.414Z,4.40
2017-11-12T08:43:18.502Z,4.50
2017-11-12T08:45:46.581Z,4.50
2017-11-12T08:48:14.679Z,4.40
2017-11-12T08:50:43.521Z,4.50
2017-11-12T08:53:11.641Z,4.50
2017-11-12T08:55:40.494Z,4.50
2017-11-12T08:58:08.589Z,4.50
2017-11-12T09:00:37.439Z,4.70
2017-11-12T09:03:05.538Z,4.70
2017-11-12T09:05:33.611Z,4.70
2017-11-12T09:08:01.698Z,4.70
2017-11-12T09:10:30.539Z,4.70
2017-11-12T09:12:59.385Z,4.80
2017-11-12T09:15:28.233Z,4.80
2017-11-12T09:17:56.333Z,4.80
2017-11-12T09:20:24.424Z,4.80
2017-11-12T09:22:53.318Z,4.80
2017-11-12T09:25:22.161Z,4.80
2017-11-12T09:27:50.472Z,4.80
2017-11-12T09:30:18.550Z,4.80
2017-11-12T09:32:47.407Z,4.90
2017-11-12T09:35:15.489Z,4.90
2017-11-12T09:37:43.564Z,4.90
2017-11-12T09:40:11.651Z,4.90
2017-11-12T09:42:39.719Z,4.90
2017-11-12T09:45:07.802Z,5.00
2017-11-12T09:47:35.918Z,5.00
2017-11-12T09:50:04.765Z,5.10
2017-11-12T09:52:33.850Z,5.10
2017-11-12T09:55:01.941Z,5.10
2017-11-12T09:57:30.813Z,5.20
2017-11-12T09:59:58.963Z,5.20
2017-11-12T10:02:27.124Z,5.20
2017-11-12T10:04:55.201Z,5.30
2017-11-12T10:07:23.293Z,5.30
2017-11-12T10:09:51.377Z,5.40
2017-11-12T10:12:20.294Z,5.40
2017-11-12T10:14:48.422Z,5.40
2017-11-12T10:17:16.495Z,5.40
2017-11-12T10:19:44.602Z,5.40
2017-11-12T10:22:13.436Z,5.40
2017-11-12T10:24:41.519Z,5.40
2017-11-12T10:27:09.632Z,5.40
2017-11-12T10:29:38.484Z,5.40
2017-11-12T10:32:06.800Z,5.40
2017-11-12T10:34:35.746Z,5.50
2017-11-12T10:37:03.847Z,5.50
2017-11-12T10:39:31.926Z,5.50
2017-11-12T10:42:00.299Z,5.50
2017-11-12T10:44:28.368Z,5.50
2017-11-12T10:46:56.448Z,5.50
2017-11-12T10:49:24.524Z,5.60
2017-11-12T10:51:53.387Z,5.70
2017-11-12T10:54:21.477Z,5.70
2017-11-12T10:56:49.558Z,5.60
2017-11-12T10:59:17.634Z,5.60
2017-11-12T11:01:45.753Z,5.60
2017-11-12T11:04:13.850Z,5.60
2017-11-12T11:06:41.943Z,5.50
2017-11-12T11:09:10.033Z,5.60
2017-11-12T11:11:38.862Z,5.60
2017-11-12T11:14:06.949Z,5.60
2017-11-12T11:16:35.029Z,5.60
2017-11-12T11:19:03.127Z,5.60
2017-11-12T11:21:31.206Z,5.70
2017-11-12T11:24:00.085Z,5.50
2017-11-12T11:26:28.169Z,5.60
2017-11-12T11:28:57.045Z,5.40
2017-11-12T11:31:25.143Z,5.40
2017-11-12T11:33:53.994Z,5.40
2017-11-12T11:36:22.096Z,5.40
2017-11-12T11:38:50.957Z,5.50
2017-11-12T11:41:19.033Z,5.40
2017-11-12T11:43:47.120Z,5.50
2017-11-12T11:46:15.224Z,5.30
2017-11-12T11:48:44.056Z,5.00
2017-11-12T11:51:12.988Z,5.00
2017-11-12T11:53:43.405Z,5.00
2017-11-12T11:56:11.465Z,5.10
2017-11-12T11:58:39.540Z,5.20
2017-11-12T12:01:07.616Z,5.30
2017-11-12T12:03:35.687Z,5.30
2017-11-12T12:06:03.773Z,5.20
2017-11-12T12:08:32.609Z,5.10
2017-11-12T12:11:00.679Z,5.10
2017-11-12T12:13:29.517Z,5.00
2017-11-12T12:15:57.611Z,4.90
2017-11-12T12:18:26.465Z,4.80
2017-11-12T12:20:54.543Z,4.90
2017-11-12T12:23:22.603Z,4.70
2017-11-12T12:25:50.674Z,4.70
2017-11-12T12:28:18.750Z,4.60
2017-11-12T12:30:46.821Z,4.70
2017-11-12T12:33:14.890Z,4.10
2017-11-12T12:35:42.986Z,4.00
2017-11-12T12:38:11.040Z,3.90
2017-11-12T12:40:39.122Z,3.80
2017-11-12T12:43:07.195Z,3.70
2017-11-12T12:45:35.261Z,3.70
2017-11-12T12:48:03.329Z,3.50
2017-11-12T12:50:31.383Z,3.50
2017-11-12T12:52:59.467Z,3.50
2017-11-12T12:55:27.562Z,3.50
2017-11-12T12:57:55.624Z,3.50
2017-11-12T13:00:23.720Z,3.50
2017-11-12T13:02:52.555Z,3.40
2017-11-12T13:05:22.021Z,3.50
2017-11-12T13:07:50.877Z,3.40
2017-11-12T13:10:18.943Z,3.40
2017-11-12T13:12:47.008Z,3.40
2017-11-12T13:15:15.092Z,3.40
2017-11-12T13:17:43.147Z,3.60
2017-11-12T13:20:11.227Z,3.60
2017-11-12T13:22:39.302Z,3.70
2017-11-12T13:25:07.368Z,3.70
2017-11-12T13:27:35.424Z,3.70
2017-11-12T13:30:03.494Z,3.70
2017-11-12T13:32:31.560Z,3.70
2017-11-12T13:34:59.633Z,3.70
2017-11-12T13:37:27.705Z,3.70
2017-11-12T13:39:55.789Z,3.70
2017-11-12T13:42:24.702Z,3.60
2017-11-12T13:44:52.761Z,3.60
2017-11-12T13:47:21.909Z,3.50
2017-11-12T13:49:50.797Z,3.40
2017-11-12T13:52:18.911Z,3.40
2017-11-12T13:54:47.749Z,3.30
2017-11-12T13:57:15.872Z,3.20
2017-11-12T13:59:43.935Z,3.30
2017-11-12T14:02:12.015Z,3.20
2017-11-12T14:04:40.837Z,2.70
2017-11-12T14:07:08.913Z,2.70
2017-11-12T14:09:36.981Z,2.80
2017-11-12T14:12:05.056Z,2.80
2017-11-12T14:14:33.108Z,2.90
2017-11-12T14:17:01.181Z,2.90
2017-11-12T14:19:29.248Z,2.90
2017-11-12T14:21:57.315Z,2.90
2017-11-12T14:24:25.397Z,2.80
2017-11-12T14:26:53.461Z,2.70
2017-11-12T14:29:21.561Z,2.70
2017-11-12T14:31:49.629Z,2.70
2017-11-12T14:34:17.701Z,2.60
2017-11-12T14:36:45.760Z,2.50
2017-11-12T14:39:13.840Z,2.50
2017-11-12T14:41:41.914Z,2.40
2017-11-12T14:44:10.008Z,2.30
2017-11-12T14:46:38.084Z,2.40
2017-11-12T14:49:06.916Z,2.40
2017-11-12T14:51:34.984Z,2.40
2017-11-12T14:54:03.056Z,2.40
2017-11-12T14:56:31.136Z,2.30
2017-11-12T14:58:59.200Z,2.40
2017-11-12T15:01:27.290Z,2.40
2017-11-12T15:03:55.365Z,2.40
2017-11-12T15:06:23.445Z,2.40
2017-11-12T15:08:51.514Z,2.40
2017-11-12T15:11:19.605Z,2.40
2017-11-12T15:13:48.573Z,2.40
2017-11-12T15:16:16.627Z,2.40
2017-11-12T15:18:44.700Z,2.30
2017-11-12T15:21:12.768Z,0.90
2017-11-12T15:23:40.857Z,2.30
2017-11-12T15:26:08.920Z,2.30
2017-11-12T15:28:36.989Z,2.20
2017-11-12T15:31:05.062Z,2.20
2017-11-12T15:33:33.156Z,2.30
2017-11-12T15:36:01.218Z,2.20
2017-11-12T15:38:30.052Z,2.20
2017-11-12T15:40:58.896Z,2.30
2017-11-12T15:43:26.998Z,2.30
2017-11-12T15:45:55.074Z,2.20
2017-11-12T15:48:23.171Z,2.20
2017-11-12T15:50:52.012Z,2.20
2017-11-12T15:53:20.085Z,2.20
2017-11-12T15:55:48.173Z,2.20
2017-11-12T15:58:16.231Z,2.20
2017-11-12T16:00:44.306Z,2.20
2017-11-12T16:03:12.368Z,2.20
2017-11-12T16:05:40.549Z,2.20
2017-11-12T16:08:08.827Z,2.20
2017-11-12T16:10:36.944Z,2.20
2017-11-12T16:13:05.780Z,2.30
2017-11-12T16:15:33.861Z,2.30
2017-11-12T16:18:01.934Z,2.30
2017-11-12T16:20:30.020Z,2.30
2017-11-12T16:22:58.114Z,2.30
2017-11-12T16:25:26.173Z,2.40
2017-11-12T16:30:52.095Z,2.30
2017-11-12T16:33:20.177Z,2.30
2017-11-12T16:35:48.257Z,2.30
2017-11-12T16:38:16.325Z,2.30
2017-11-12T16:40:44.394Z,2.30
2017-11-12T16:43:12.481Z,2.40
2017-11-12T16:45:41.019Z,2.50
2017-11-12T16:48:09.099Z,2.50
2017-11-12T16:50:37.970Z,2.60
2017-11-12T16:53:06.045Z,2.60
2017-11-12T16:55:34.160Z,2.60
2017-11-12T16:58:02.244Z,2.60
2017-11-12T17:00:30.306Z,2.60
2017-11-12T17:02:58.459Z,2.60
2017-11-12T17:05:26.654Z,2.70
2017-11-12T17:07:54.920Z,2.60
2017-11-12T17:10:22.997Z,2.60
2017-11-12T17:12:51.057Z,2.60
2017-11-12T17:15:19.142Z,2.60
2017-11-12T17:17:47.204Z,2.60
2017-11-12T17:20:15.283Z,2.60
2017-11-12T17:22:43.344Z,2.60
2017-11-12T17:25:11.416Z,2.60
2017-11-12T17:27:39.489Z,2.60
2017-11-12T17:30:07.560Z,2.60
2017-11-12T17:32:35.631Z,2.60
2017-11-12T17:35:03.821Z,2.60
2017-11-12T17:37:31.882Z,2.60
2017-11-12T17:39:59.944Z,2.60
2017-11-12T17:42:28.009Z,2.60
2017-11-12T17:44:56.073Z,2.50
2017-11-12T17:47:24.166Z,2.50
2017-11-12T17:49:52.446Z,2.60
2017-11-12T17:52:20.521Z,2.60
2017-11-12T17:54:48.603Z,2.70
2017-11-12T17:57:16.693Z,2.80
2017-11-12T17:59:45.577Z,2.80
2017-11-12T18:02:13.677Z,2.80
2017-11-12T18:04:42.595Z,2.80
2017-11-12T18:07:10.688Z,2.80
2017-11-12T18:09:38.866Z,2.80
2017-11-12T18:12:06.968Z,2.80
2017-11-12T18:14:35.148Z,2.80
2017-11-12T18:17:05.300Z,2.90
2017-11-12T18:19:33.549Z,2.90
2017-11-12T18:22:02.638Z,2.80
2017-11-12T18:24:34.572Z,3.10
2017-11-12T18:27:02.876Z,2.70
2017-11-12T18:29:32.004Z,2.90
2017-11-12T18:32:01.289Z,2.80
2017-11-12T18:34:30.146Z,2.90
2017-11-12T18:36:58.204Z,2.90
2017-11-12T18:39:26.271Z,2.90
2017-11-12T18:41:54.346Z,2.90
2017-11-12T18:44:22.469Z,2.80
2017-11-12T18:46:50.545Z,2.90
2017-11-12T18:49:19.380Z,2.80
2017-11-12T18:51:47.536Z,2.80
2017-11-12T18:54:15.601Z,2.80
2017-11-12T19:00:00.658Z,2.70
2017-11-12T19:02:35.154Z,2.70
2017-11-12T19:08:08.908Z,2.70
2017-11-12T19:10:37.740Z,2.70
2017-11-12T19:13:06.572Z,2.70
2017-11-12T19:15:34.669Z,2.70
2017-11-12T19:18:04.335Z,2.80
2017-11-12T19:20:32.957Z,2.70
2017-11-12T19:23:05.317Z,2.90
2017-11-12T19:25:34.921Z,2.90
2017-11-12T19:28:03.761Z,2.80
2017-11-12T19:30:31.831Z,2.90
2017-11-12T19:32:59.911Z,2.80
2017-11-12T19:35:27.989Z,2.80
2017-11-12T19:37:56.057Z,2.90
2017-11-12T19:40:24.884Z,2.90
2017-11-12T19:42:52.960Z,2.90
2017-11-12T19:45:21.028Z,2.90
2017-11-12T19:47:49.105Z,3.00
2017-11-12T19:50:17.264Z,2.90
2017-11-12T19:52:45.344Z,2.90
2017-11-12T19:55:13.409Z,2.90
2017-11-12T19:57:41.514Z,2.90
2017-11-12T20:00:10.567Z,2.90
2017-11-12T20:02:38.635Z,2.90
2017-11-12T20:05:06.704Z,2.80
2017-11-12T20:07:34.782Z,2.80
2017-11-12T20:10:02.850Z,2.80
2017-11-12T20:12:30.931Z,2.80
2017-11-12T20:14:59.019Z,2.80
2017-11-12T20:17:27.085Z,2.90
2017-11-12T20:19:55.153Z,2.80
2017-11-12T20:22:23.212Z,2.80
2017-11-12T20:24:51.280Z,2.80
2017-11-12T20:27:19.373Z,2.70
2017-11-12T20:29:47.473Z,2.80
2017-11-12T20:32:16.309Z,2.80
2017-11-12T20:34:44.373Z,2.80
2017-11-12T20:37:12.456Z,2.80
2017-11-12T20:39:40.625Z,2.70
2017-11-12T20:42:08.849Z,2.70
2017-11-12T20:44:37.004Z,2.70
2017-11-12T20:47:05.090Z,2.70
2017-11-12T20:49:33.153Z,2.80
2017-11-12T20:52:01.220Z,2.80
2017-11-12T20:54:29.295Z,2.80
2017-11-12T20:56:57.383Z,2.80
2017-11-12T20:59:26.226Z,2.80
2017-11-12T21:01:54.312Z,2.70
2017-11-12T21:04:22.719Z,2.80
2017-11-12T21:06:50.775Z,2.80
2017-11-12T21:09:18.854Z,2.80
2017-11-12T21:11:46.916Z,2.80
2017-11-12T21:14:14.992Z,2.80
2017-11-12T21:16:43.057Z,2.80
2017-11-12T21:19:12.461Z,2.80
2017-11-12T21:24:48.445Z,2.90
2017-11-12T21:27:31.529Z,2.90
2017-11-12T21:33:27.098Z,2.90
2017-11-12T21:36:05.894Z,2.90
2017-11-12T21:38:33.964Z,2.90
2017-11-12T21:41:02.037Z,3.00
2017-11-12T21:43:30.111Z,3.00
2017-11-12T21:45:58.212Z,3.00
2017-11-12T21:48:26.516Z,3.00
2017-11-12T21:50:54.592Z,3.00
2017-11-12T21:53:23.430Z,2.90
2017-11-12T21:55:51.512Z,2.90
2017-11-12T21:58:19.601Z,3.00
2017-11-12T22:00:47.698Z,3.00
2017-11-12T22:03:16.532Z,3.00
2017-11-12T22:05:44.618Z,3.00
2017-11-12T22:08:12.715Z,3.00
2017-11-12T22:10:40.805Z,3.10
2017-11-12T22:13:09.680Z,3.10
2017-11-12T22:15:37.764Z,3.10
2017-11-12T22:18:05.839Z,3.00
2017-11-12T22:20:34.684Z,3.10
2017-11-12T22:23:02.769Z,3.10
2017-11-12T22:25:30.841Z,3.10
2017-11-12T22:27:59.696Z,3.20
2017-11-12T22:30:27.761Z,3.20
2017-11-12T22:32:56.269Z,3.20
2017-11-12T22:35:24.337Z,3.20
2017-11-12T22:37:53.164Z,3.20
2017-11-12T22:40:21.249Z,3.20
2017-11-12T22:42:49.334Z,3.20
2017-11-12T22:45:18.202Z,3.20
2017-11-12T22:47:46.277Z,3.20
2017-11-12T22:50:14.357Z,3.20
2017-11-12T22:52:42.425Z,3.20
2017-11-12T22:55:10.499Z,3.20
2017-11-12T22:57:39.337Z,3.20
2017-11-12T23:00:07.423Z,3.20
2017-11-12T23:02:35.492Z,3.20
2017-11-12T23:05:03.576Z,3.20
2017-11-12T23:07:31.647Z,3.20
2017-11-12T23:09:59.750Z,3.20
2017-11-12T23:12:27.836Z,3.20
2017-11-12T23:14:56.684Z,3.20
2017-11-12T23:17:24.762Z,3.20
2017-11-12T23:19:52.844Z,3.30
2017-11-12T23:22:20.952Z,3.30
2017-11-12T23:24:49.792Z,3.30
2017-11-12T23:27:18.018Z,3.30
2017-11-12T23:29:46.857Z,3.30
2017-11-12T23:32:14.927Z,3.40
2017-11-12T23:34:43.084Z,3.40
2017-11-12T23:37:11.153Z,3.40
2017-11-12T23:39:39.236Z,3.40
2017-11-12T23:42:08.068Z,3.50
2017-11-12T23:44:36.302Z,3.40
2017-11-12T23:47:04.592Z,3.50
2017-11-12T23:49:32.685Z,3.50
2017-11-12T23:52:00.791Z,3.50
2017-11-12T23:54:28.892Z,3.50
2017-11-12T23:56:56.969Z,3.40
2017-11-12T23:59:25.057Z,3.50
